createdAt,value
2022-11-28T00:00:46.213Z,48.96
2022-11-28T00:01:46.240Z,48.96
2022-11-28T00:02:46.316Z,48.98
2022-11-28T00:03:46.187Z,48.88
2022-11-28T00:04:46.337Z,48.96
2022-11-28T00:05:47.153Z,48.85
2022-11-28T00:06:46.161Z,48.88
2022-11-28T00:07:46.183Z,48.85
2022-11-28T00:08:46.150Z,48.88
2022-11-28T00:09:46.135Z,48.98
2022-11-28T00:10:46.166Z,48.88
2022-11-28T00:11:46.112Z,48.98
2022-11-28T00:12:46.157Z,48.88
2022-11-28T00:13:46.078Z,48.96
2022-11-28T00:14:46.066Z,48.98
2022-11-28T00:15:46.098Z,48.88
2022-11-28T00:16:46.083Z,48.98
2022-11-28T00:17:46.043Z,48.98
2022-11-28T00:18:46.028Z,48.98
2022-11-28T00:19:46.026Z,48.88
2022-11-28T00:20:46.009Z,48.98
2022-11-28T00:21:46.011Z,48.98
2022-11-28T00:22:46.025Z,48.98
2022-11-28T00:23:46.002Z,48.96
2022-11-28T00:24:45.969Z,48.96
2022-11-28T00:25:45.957Z,48.98
2022-11-28T00:26:45.957Z,49.08
2022-11-28T00:27:45.943Z,48.96
2022-11-28T00:28:46.062Z,48.96
2022-11-28T00:29:45.916Z,48.96
2022-11-28T00:30:45.939Z,48.98
2022-11-28T00:31:45.947Z,48.96
2022-11-28T00:32:45.884Z,48.98
2022-11-28T00:33:45.882Z,48.85
2022-11-28T00:34:46.038Z,48.96
2022-11-28T00:35:45.856Z,48.96
2022-11-28T00:36:45.843Z,48.85
2022-11-28T00:37:45.852Z,48.96
2022-11-28T00:38:45.825Z,48.85
2022-11-28T00:39:45.808Z,48.85
2022-11-28T00:40:45.941Z,48.85
2022-11-28T00:41:45.799Z,48.85
2022-11-28T00:42:45.781Z,48.88
2022-11-28T00:43:45.770Z,48.85
2022-11-28T00:44:45.763Z,48.85
2022-11-28T00:45:45.847Z,48.85
2022-11-28T00:46:45.775Z,48.85
2022-11-28T00:47:45.725Z,48.85
2022-11-28T00:48:45.728Z,48.85
2022-11-28T00:49:45.718Z,48.85
2022-11-28T00:50:45.715Z,48.88
2022-11-28T00:51:45.688Z,48.85
2022-11-28T00:52:45.823Z,48.88
2022-11-28T00:53:45.678Z,48.75
2022-11-28T00:54:45.663Z,48.75
2022-11-28T00:55:45.652Z,48.85
2022-11-28T00:56:45.642Z,48.85
2022-11-28T00:57:45.637Z,48.75
2022-11-28T00:58:45.752Z,48.75
2022-11-28T00:59:45.624Z,48.75
2022-11-28T01:00:45.646Z,48.75
2022-11-28T01:01:45.656Z,48.75
2022-11-28T01:02:45.622Z,48.75
2022-11-28T01:03:45.568Z,48.75
2022-11-28T01:04:45.583Z,48.75
2022-11-28T01:05:45.546Z,48.85
2022-11-28T01:06:45.536Z,48.78
2022-11-28T01:07:45.586Z,48.75
2022-11-28T01:08:45.523Z,48.75
2022-11-28T01:09:45.494Z,48.75
2022-11-28T01:10:45.639Z,48.75
2022-11-28T01:11:45.476Z,48.75
2022-11-28T01:12:45.482Z,48.75
2022-11-28T01:13:45.467Z,48.75
2022-11-28T01:14:45.457Z,48.75
2022-11-28T01:15:45.444Z,48.65
2022-11-28T01:16:45.640Z,48.75
2022-11-28T01:17:45.421Z,48.65
2022-11-28T01:18:45.412Z,48.75
2022-11-28T01:19:45.398Z,48.75
2022-11-28T01:20:45.396Z,48.65
2022-11-28T01:21:45.378Z,48.65
2022-11-28T01:22:45.553Z,48.65
2022-11-28T01:23:45.357Z,48.65
2022-11-28T01:24:45.360Z,48.65
2022-11-28T01:25:45.333Z,48.65
2022-11-28T01:26:45.329Z,48.65
2022-11-28T01:27:45.367Z,48.65
2022-11-28T01:28:45.559Z,48.65
2022-11-28T01:29:45.296Z,48.65
2022-11-28T01:30:45.297Z,48.65
2022-11-28T01:31:45.374Z,48.65
2022-11-28T01:32:45.274Z,48.65
2022-11-28T01:33:45.253Z,48.65
2022-11-28T01:34:45.413Z,48.65
2022-11-28T01:35:45.230Z,48.65
2022-11-28T01:36:45.233Z,48.65
2022-11-28T01:37:45.226Z,48.65
2022-11-28T01:38:45.207Z,48.65
2022-11-28T01:39:45.198Z,48.65
2022-11-28T01:40:45.348Z,48.65
2022-11-28T01:41:45.178Z,48.65
2022-11-28T01:42:45.159Z,48.55
2022-11-28T01:43:45.153Z,48.65
2022-11-28T01:44:45.148Z,48.55
2022-11-28T01:45:45.131Z,48.65
2022-11-28T01:46:45.360Z,48.55
2022-11-28T01:47:45.105Z,48.55
2022-11-28T01:48:45.101Z,48.55
2022-11-28T01:49:45.086Z,48.55
2022-11-28T01:50:45.106Z,48.58
2022-11-28T01:51:45.108Z,48.55
2022-11-28T01:52:45.229Z,48.47
2022-11-28T01:53:45.078Z,48.55
2022-11-28T01:54:45.039Z,48.58
2022-11-28T01:55:45.030Z,48.55
2022-11-28T01:56:45.024Z,48.45
2022-11-28T01:57:45.011Z,48.45
2022-11-28T01:58:45.152Z,48.45
2022-11-28T01:59:44.986Z,48.55
2022-11-28T02:00:45.027Z,48.45
2022-11-28T02:01:44.995Z,48.45
2022-11-28T02:02:44.966Z,48.47
2022-11-28T02:03:44.948Z,48.45
2022-11-28T02:04:44.988Z,48.45
2022-11-28T02:05:44.932Z,48.45
2022-11-28T02:06:44.918Z,48.47
2022-11-28T02:07:45.017Z,48.35
2022-11-28T02:08:44.909Z,48.37
2022-11-28T02:09:44.894Z,48.45
2022-11-28T02:10:45.040Z,48.37
2022-11-28T02:11:44.875Z,48.45
2022-11-28T02:12:44.851Z,48.37
2022-11-28T02:13:44.848Z,48.37
2022-11-28T02:14:44.862Z,48.47
2022-11-28T02:15:44.848Z,48.47
2022-11-28T02:16:45.015Z,48.47
2022-11-28T02:17:44.799Z,48.37
2022-11-28T02:18:50.128Z,48.37
2022-11-28T02:19:44.790Z,48.37
2022-11-28T02:20:44.808Z,48.37
2022-11-28T02:21:44.762Z,48.37
2022-11-28T02:22:44.887Z,48.27
2022-11-28T02:23:44.741Z,48.37
2022-11-28T02:24:44.804Z,48.37
2022-11-28T02:25:44.727Z,48.37
2022-11-28T02:26:44.724Z,48.27
2022-11-28T02:27:44.712Z,48.37
2022-11-28T02:28:44.741Z,48.27
2022-11-28T02:29:44.690Z,48.37
2022-11-28T02:30:44.683Z,48.27
2022-11-28T02:31:44.750Z,48.37
2022-11-28T02:32:44.659Z,48.27
2022-11-28T02:33:44.636Z,48.27
2022-11-28T02:34:47.018Z,48.27
2022-11-28T02:35:44.637Z,48.27
2022-11-28T02:36:44.615Z,48.27
2022-11-28T02:37:44.601Z,48.27
2022-11-28T02:38:44.637Z,48.27
2022-11-28T02:39:44.591Z,48.27
2022-11-28T02:40:44.596Z,48.27
2022-11-28T02:41:44.560Z,48.17
2022-11-28T02:42:44.544Z,48.27
2022-11-28T02:43:44.539Z,48.17
2022-11-28T02:44:44.853Z,48.27
2022-11-28T02:45:44.535Z,48.27
2022-11-28T02:46:44.605Z,48.37
2022-11-28T02:47:44.489Z,48.27
2022-11-28T02:48:44.609Z,48.27
2022-11-28T02:49:44.479Z,48.27
2022-11-28T02:50:44.469Z,48.27
2022-11-28T02:51:44.456Z,48.27
2022-11-28T02:52:44.601Z,48.17
2022-11-28T02:53:44.438Z,48.27
2022-11-28T02:54:44.743Z,48.27
2022-11-28T02:55:44.416Z,48.27
2022-11-28T02:56:44.403Z,48.27
2022-11-28T02:57:44.391Z,48.27
2022-11-28T02:58:44.512Z,48.17
2022-11-28T02:59:44.367Z,48.27
2022-11-28T03:00:44.399Z,48.27
2022-11-28T03:01:44.385Z,48.17
2022-11-28T03:02:44.336Z,48.17
2022-11-28T03:03:44.321Z,48.27
2022-11-28T03:04:44.726Z,48.27
2022-11-28T03:05:44.315Z,48.27
2022-11-28T03:06:44.505Z,48.27
2022-11-28T03:07:44.489Z,48.17
2022-11-28T03:08:44.623Z,48.17
2022-11-28T03:09:44.521Z,48.17
2022-11-28T03:10:44.648Z,48.17
2022-11-28T03:11:44.391Z,48.17
2022-11-28T03:12:44.539Z,48.17
2022-11-28T03:13:44.551Z,48.17
2022-11-28T03:14:44.718Z,48.17
2022-11-28T03:15:44.371Z,48.17
2022-11-28T03:16:44.660Z,48.17
2022-11-28T03:17:44.574Z,48.17
2022-11-28T03:18:44.378Z,48.17
2022-11-28T03:19:44.327Z,48.17
2022-11-28T03:20:44.495Z,48.07
2022-11-28T03:21:44.302Z,48.07
2022-11-28T03:22:44.611Z,48.17
2022-11-28T03:23:44.273Z,48.07
2022-11-28T03:24:44.500Z,48.17
2022-11-28T03:25:44.529Z,48.17
2022-11-28T03:26:44.434Z,48.07
2022-11-28T03:27:44.230Z,48.17
2022-11-28T03:28:44.448Z,48.07
2022-11-28T03:29:44.249Z,48.07
2022-11-28T03:30:44.261Z,47.97
2022-11-28T03:31:44.485Z,48.07
2022-11-28T03:32:44.272Z,47.97
2022-11-28T03:33:44.190Z,48.07
2022-11-28T03:34:45.291Z,47.97
2022-11-28T03:35:44.134Z,47.97
2022-11-28T03:36:44.300Z,48.07
2022-11-28T03:37:44.204Z,47.97
2022-11-28T03:38:44.320Z,47.97
2022-11-28T03:39:44.087Z,47.97
2022-11-28T03:40:44.331Z,47.97
2022-11-28T03:41:44.137Z,47.97
2022-11-28T03:42:44.152Z,47.97
2022-11-28T03:43:44.248Z,47.97
2022-11-28T03:44:44.691Z,47.97
2022-11-28T03:45:44.057Z,47.97
2022-11-28T03:46:44.319Z,47.97
2022-11-28T03:47:44.005Z,48.07
2022-11-28T03:48:44.180Z,47.97
2022-11-28T03:49:44.085Z,48.07
2022-11-28T03:50:44.091Z,48.07
2022-11-28T03:51:43.970Z,48.07
2022-11-28T03:52:44.312Z,47.97
2022-11-28T03:53:44.011Z,47.97
2022-11-28T03:54:44.373Z,47.97
2022-11-28T03:55:44.101Z,47.97
2022-11-28T03:56:44.032Z,48.07
2022-11-28T03:57:43.936Z,47.97
2022-11-28T03:58:44.154Z,47.97
2022-11-28T04:00:01.051Z,47.97
2022-11-28T04:00:44.165Z,47.97
2022-11-28T04:05:01.701Z,47.97
2022-11-28T04:06:02.395Z,47.97
2022-11-28T04:07:00.619Z,47.97
2022-11-28T04:08:00.940Z,47.97
2022-11-28T04:09:04.803Z,47.97
2022-11-28T04:10:03.341Z,47.97
2022-11-28T04:12:24.903Z,47.97
2022-11-28T04:12:30.931Z,47.97
2022-11-28T04:13:33.505Z,47.97
2022-11-28T04:14:30.744Z,47.97
2022-11-28T04:15:31.648Z,47.87
2022-11-28T04:16:30.294Z,47.97
2022-11-28T04:17:31.137Z,47.97
2022-11-28T04:20:00.174Z,47.87
2022-11-28T04:21:03.352Z,47.97
2022-11-28T04:21:59.882Z,47.97
2022-11-28T04:23:32.448Z,47.97
2022-11-28T04:23:59.283Z,48.07
2022-11-28T04:25:24.985Z,48.07
2022-11-28T04:25:59.145Z,48.17
2022-11-28T04:26:59.418Z,48.45
2022-11-28T04:28:02.375Z,48.85
2022-11-28T04:34:16.446Z,49.56
2022-11-28T04:36:42.808Z,49.56
2022-11-28T04:36:48.310Z,49.46
2022-11-28T04:37:48.567Z,49.46
2022-11-28T04:38:47.829Z,49.46
2022-11-28T04:39:48.563Z,49.46
2022-11-28T04:40:47.824Z,49.46
2022-11-28T04:41:47.800Z,49.36
2022-11-28T04:42:52.591Z,49.36
2022-11-28T04:43:47.936Z,49.36
2022-11-28T04:44:47.761Z,49.36
2022-11-28T04:45:48.061Z,49.36
2022-11-28T04:46:47.764Z,49.36
2022-11-28T04:47:47.746Z,49.36
2022-11-28T04:48:47.737Z,49.36
2022-11-28T04:49:47.774Z,49.36
2022-11-28T04:50:47.701Z,49.36
2022-11-28T04:51:47.702Z,49.36
2022-11-28T04:52:47.695Z,49.36
2022-11-28T04:53:47.699Z,49.36
2022-11-28T04:54:47.674Z,49.26
2022-11-28T04:55:47.804Z,49.26
2022-11-28T04:56:48.170Z,49.26
2022-11-28T04:57:52.857Z,49.26
2022-11-28T04:58:47.638Z,49.16
2022-11-28T04:59:47.769Z,49.16
2022-11-28T05:00:47.677Z,49.16
2022-11-28T05:03:32.294Z,49.05
2022-11-28T05:07:01.019Z,49.05
2022-11-28T05:08:09.506Z,49.05
2022-11-28T05:09:01.966Z,49.05
2022-11-28T05:10:03.094Z,49.16
2022-11-28T05:11:02.026Z,49.16
2022-11-28T05:12:02.809Z,49.16
2022-11-28T05:13:01.927Z,49.16
2022-11-28T05:14:01.986Z,49.05
2022-11-28T05:15:01.918Z,49.05
2022-11-28T05:16:01.919Z,49.05
2022-11-28T05:17:01.907Z,49.05
2022-11-28T05:18:03.299Z,48.96
2022-11-28T05:19:01.921Z,49.05
2022-11-28T05:20:09.311Z,48.96
2022-11-28T05:21:27.009Z,48.96
2022-11-28T05:22:02.854Z,48.85
2022-11-28T05:23:02.363Z,48.85
2022-11-28T05:24:01.814Z,48.85
2022-11-28T05:25:01.827Z,48.85
2022-11-28T05:26:01.808Z,48.85
2022-11-28T05:27:01.783Z,48.96
2022-11-28T05:28:01.832Z,48.75
2022-11-28T05:29:02.372Z,48.85
2022-11-28T05:30:01.777Z,48.85
2022-11-28T05:31:01.736Z,48.85
2022-11-28T05:32:01.761Z,48.75
2022-11-28T05:33:01.719Z,48.75
2022-11-28T05:34:01.854Z,48.75
2022-11-28T05:35:01.753Z,48.75
2022-11-28T05:36:01.686Z,48.75
2022-11-28T05:37:01.686Z,48.75
2022-11-28T05:38:01.664Z,48.75
2022-11-28T05:39:01.665Z,48.75
2022-11-28T05:40:01.774Z,48.85
2022-11-28T05:41:01.638Z,48.75
2022-11-28T05:42:01.619Z,48.75
2022-11-28T05:43:01.622Z,48.85
2022-11-28T05:44:01.616Z,48.85
2022-11-28T05:45:01.603Z,48.85
2022-11-28T05:46:01.760Z,48.85
2022-11-28T05:47:01.573Z,48.85
2022-11-28T05:48:01.559Z,48.96
2022-11-28T05:49:01.554Z,48.96
2022-11-28T05:50:01.537Z,48.96
2022-11-28T05:51:01.541Z,48.96
2022-11-28T05:52:01.661Z,48.96
2022-11-28T05:53:01.518Z,48.85
2022-11-28T05:54:01.498Z,48.96
2022-11-28T05:55:01.538Z,48.96
2022-11-28T05:56:01.474Z,48.96
2022-11-28T05:57:01.473Z,48.96
2022-11-28T05:58:01.491Z,48.96
2022-11-28T05:59:01.479Z,48.85
2022-11-28T06:00:01.446Z,48.85
2022-11-28T06:01:01.432Z,48.85
2022-11-28T06:02:01.510Z,48.85
2022-11-28T06:03:01.900Z,48.85
2022-11-28T06:04:01.642Z,48.85
2022-11-28T06:05:16.167Z,48.85
2022-11-28T06:06:01.382Z,48.96
2022-11-28T06:07:01.384Z,48.85
2022-11-28T06:08:01.441Z,48.88
2022-11-28T06:09:01.368Z,48.85
2022-11-28T06:10:01.462Z,48.85
2022-11-28T06:11:01.333Z,48.75
2022-11-28T06:12:01.310Z,48.85
2022-11-28T06:13:01.310Z,48.88
2022-11-28T06:14:01.308Z,48.85
2022-11-28T06:15:01.290Z,48.85
2022-11-28T06:16:01.520Z,48.85
2022-11-28T06:17:01.372Z,48.85
2022-11-28T06:18:01.251Z,48.85
2022-11-28T06:19:01.248Z,48.85
2022-11-28T06:20:01.242Z,48.98
2022-11-28T06:21:01.228Z,48.98
2022-11-28T06:22:01.346Z,48.85
2022-11-28T06:23:01.205Z,48.85
2022-11-28T06:24:01.189Z,48.85
2022-11-28T06:25:01.193Z,48.85
2022-11-28T06:26:01.164Z,48.85
2022-11-28T06:27:01.161Z,48.85
2022-11-28T06:28:01.277Z,48.96
2022-11-28T06:29:01.148Z,48.98
2022-11-28T06:30:01.131Z,48.96
2022-11-28T06:31:01.134Z,48.96
2022-11-28T06:32:01.195Z,48.85
2022-11-28T06:33:01.100Z,48.96
2022-11-28T06:34:01.139Z,48.96
2022-11-28T06:35:01.200Z,48.96
2022-11-28T06:36:01.063Z,48.96
2022-11-28T06:37:01.338Z,48.96
2022-11-28T06:38:01.043Z,48.96
2022-11-28T06:39:01.043Z,48.96
2022-11-28T06:40:01.060Z,48.96
2022-11-28T06:41:01.038Z,48.96
2022-11-28T06:42:01.004Z,48.96
2022-11-28T06:43:00.993Z,48.96
2022-11-28T06:44:00.987Z,48.96
2022-11-28T06:45:00.991Z,48.96
2022-11-28T06:46:01.011Z,48.96
2022-11-28T06:47:00.958Z,48.96
2022-11-28T06:48:00.949Z,48.85
2022-11-28T06:49:00.936Z,48.85
2022-11-28T06:50:00.928Z,48.85
2022-11-28T06:51:00.933Z,48.85
2022-11-28T06:52:01.039Z,48.75
2022-11-28T06:53:00.923Z,48.75
2022-11-28T06:54:00.878Z,48.75
2022-11-28T06:55:00.876Z,48.75
2022-11-28T06:56:00.804Z,48.85
2022-11-28T06:57:00.860Z,48.85
2022-11-28T06:58:00.968Z,48.85
2022-11-28T06:59:00.828Z,48.75
2022-11-28T07:00:00.824Z,48.65
2022-11-28T07:01:00.849Z,48.65
2022-11-28T07:02:04.318Z,48.75
2022-11-28T07:03:00.809Z,48.75
2022-11-28T07:04:00.827Z,48.75
2022-11-28T07:05:00.776Z,48.75
2022-11-28T07:06:00.751Z,48.65
2022-11-28T07:07:00.753Z,48.65
2022-11-28T07:08:00.790Z,48.65
2022-11-28T07:09:00.739Z,48.65
2022-11-28T07:10:00.744Z,48.75
2022-11-28T07:11:00.709Z,48.65
2022-11-28T07:12:00.735Z,48.65
2022-11-28T07:13:05.071Z,48.65
2022-11-28T07:14:00.672Z,48.55
2022-11-28T07:15:00.665Z,48.55
2022-11-28T07:16:00.683Z,48.55
2022-11-28T07:17:00.766Z,48.55
2022-11-28T07:18:00.641Z,48.45
2022-11-28T07:19:00.628Z,48.55
2022-11-28T07:20:00.624Z,48.55
2022-11-28T07:21:00.609Z,48.45
2022-11-28T07:22:00.627Z,48.55
2022-11-28T07:23:00.611Z,48.55
2022-11-28T07:24:00.670Z,48.55
2022-11-28T07:25:00.568Z,48.45
2022-11-28T07:26:00.551Z,48.55
2022-11-28T07:27:00.547Z,48.55
2022-11-28T07:28:00.716Z,48.55
2022-11-28T07:29:00.518Z,48.55
2022-11-28T07:30:00.465Z,48.65
2022-11-28T07:31:00.452Z,48.65
2022-11-28T07:32:00.472Z,48.55
2022-11-28T07:33:00.427Z,48.55
2022-11-28T07:34:00.560Z,48.65
2022-11-28T07:35:00.412Z,48.65
2022-11-28T07:36:00.391Z,48.55
2022-11-28T07:37:00.397Z,48.65
2022-11-28T07:38:00.372Z,48.55
2022-11-28T07:39:00.364Z,48.55
2022-11-28T07:40:00.511Z,48.55
2022-11-28T07:41:00.350Z,48.55
2022-11-28T07:42:00.337Z,48.65
2022-11-28T07:43:00.333Z,48.55
2022-11-28T07:44:00.311Z,48.55
2022-11-28T07:45:00.308Z,48.55
2022-11-28T07:46:01.552Z,48.55
2022-11-28T07:47:00.379Z,48.55
2022-11-28T07:48:00.281Z,48.45
2022-11-28T07:49:00.269Z,48.45
2022-11-28T07:50:00.252Z,48.45
2022-11-28T07:51:00.239Z,48.45
2022-11-28T07:52:00.264Z,48.45
2022-11-28T07:53:05.593Z,48.55
2022-11-28T07:54:00.216Z,48.55
2022-11-28T07:55:00.212Z,48.45
2022-11-28T07:56:00.187Z,48.45
2022-11-28T07:57:15.662Z,48.45
2022-11-28T07:58:00.219Z,48.45
2022-11-28T07:59:03.214Z,48.45
2022-11-28T08:00:00.153Z,48.45
2022-11-28T08:01:00.145Z,48.55
2022-11-28T08:02:00.206Z,48.45
2022-11-28T08:03:00.121Z,48.45
2022-11-28T08:04:00.296Z,48.45
2022-11-28T08:05:00.191Z,48.45
2022-11-28T08:06:01.734Z,48.45
2022-11-28T08:07:00.092Z,48.45
2022-11-28T08:08:00.188Z,48.45
2022-11-28T08:09:00.057Z,48.45
2022-11-28T08:10:00.192Z,48.45
2022-11-28T08:11:01.755Z,48.45
2022-11-28T08:12:00.091Z,48.55
2022-11-28T08:13:00.621Z,48.45
2022-11-28T08:14:00.056Z,48.55
2022-11-28T08:15:00.049Z,48.55
2022-11-28T08:16:00.162Z,48.45
2022-11-28T08:17:00.069Z,48.45
2022-11-28T08:18:00.032Z,48.35
2022-11-28T08:19:00.014Z,48.35
2022-11-28T08:19:59.995Z,48.45
2022-11-28T08:20:59.989Z,48.45
2022-11-28T08:22:00.006Z,48.45
2022-11-28T08:22:59.973Z,48.45
2022-11-28T08:23:59.953Z,48.35
2022-11-28T08:24:59.948Z,48.45
2022-11-28T08:25:59.936Z,48.45
2022-11-28T08:26:59.927Z,48.35
2022-11-28T08:28:00.046Z,48.45
2022-11-28T08:28:59.915Z,48.45
2022-11-28T08:29:59.892Z,48.45
2022-11-28T08:30:59.912Z,48.45
2022-11-28T08:31:59.888Z,48.35
2022-11-28T08:32:59.861Z,48.45
2022-11-28T08:33:59.907Z,48.45
2022-11-28T08:35:00.037Z,48.45
2022-11-28T08:35:59.838Z,48.35
2022-11-28T08:36:59.827Z,48.35
2022-11-28T08:38:01.991Z,48.35
2022-11-28T08:39:59.929Z,48.35
2022-11-28T08:40:59.777Z,48.35
2022-11-28T08:41:59.788Z,48.35
2022-11-28T08:42:59.791Z,48.25
2022-11-28T08:43:59.751Z,48.25
2022-11-28T08:44:59.735Z,48.25
2022-11-28T08:45:59.804Z,48.35
2022-11-28T08:46:59.722Z,48.25
2022-11-28T08:47:59.719Z,48.15
2022-11-28T08:48:59.705Z,48.15
2022-11-28T08:49:59.715Z,48.25
2022-11-28T08:50:59.682Z,48.25
2022-11-28T08:51:59.694Z,48.25
2022-11-28T08:53:01.906Z,48.25
2022-11-28T08:54:00.175Z,48.25
2022-11-28T08:54:59.636Z,48.15
2022-11-28T08:55:59.625Z,48.15
2022-11-28T08:56:59.628Z,48.15
2022-11-28T08:57:59.773Z,48.05
2022-11-28T08:58:59.590Z,48.05
2022-11-28T08:59:59.587Z,48.05
2022-11-28T09:00:59.627Z,48.05
2022-11-28T09:01:59.565Z,48.05
2022-11-28T09:02:59.550Z,47.95
2022-11-28T09:03:59.770Z,47.95
2022-11-28T09:04:59.612Z,48.05
2022-11-28T09:05:59.532Z,48.05
2022-11-28T09:06:59.514Z,47.95
2022-11-28T09:07:59.572Z,48.05
2022-11-28T09:08:59.493Z,48.05
2022-11-28T09:09:59.649Z,48.05
2022-11-28T09:10:59.470Z,47.95
2022-11-28T09:11:59.419Z,47.85
2022-11-28T09:12:59.389Z,47.85
2022-11-28T09:13:59.395Z,47.85
2022-11-28T09:14:59.372Z,47.85
2022-11-28T09:15:59.413Z,47.85
2022-11-28T09:16:59.453Z,47.85
2022-11-28T09:17:59.378Z,47.74
2022-11-28T09:18:59.332Z,47.85
2022-11-28T09:19:59.328Z,47.74
2022-11-28T09:20:59.314Z,47.74
2022-11-28T09:21:59.502Z,47.74
2022-11-28T09:22:59.479Z,47.74
2022-11-28T09:23:59.282Z,47.74
2022-11-28T09:24:59.282Z,47.74
2022-11-28T09:25:59.262Z,47.74
2022-11-28T09:26:59.388Z,47.64
2022-11-28T09:27:59.269Z,47.64
2022-11-28T09:28:59.246Z,47.74
2022-11-28T09:29:59.229Z,47.54
2022-11-28T09:30:59.265Z,47.54
2022-11-28T09:31:59.208Z,47.64
2022-11-28T09:32:59.193Z,47.74
2022-11-28T09:33:59.353Z,47.64
2022-11-28T09:34:59.161Z,47.74
2022-11-28T09:35:59.161Z,47.64
2022-11-28T09:37:04.846Z,47.54
2022-11-28T09:37:59.142Z,47.54
2022-11-28T09:38:59.136Z,47.64
2022-11-28T09:40:13.343Z,47.64
2022-11-28T09:40:59.110Z,47.64
2022-11-28T09:41:59.105Z,47.64
2022-11-28T09:42:59.083Z,47.64
2022-11-28T09:43:59.071Z,47.64
2022-11-28T09:44:59.074Z,47.64
2022-11-28T09:45:59.124Z,47.64
2022-11-28T09:46:59.044Z,47.54
2022-11-28T09:47:59.037Z,47.54
2022-11-28T09:48:59.031Z,47.54
2022-11-28T09:49:59.013Z,47.64
2022-11-28T09:50:59.004Z,47.64
2022-11-28T09:51:59.165Z,47.54
2022-11-28T09:52:59.066Z,47.54
2022-11-28T09:53:58.976Z,47.54
2022-11-28T09:54:58.960Z,47.64
2022-11-28T09:55:58.975Z,47.64
2022-11-28T09:56:58.957Z,47.64
2022-11-28T09:57:59.097Z,47.64
2022-11-28T09:58:59.007Z,47.54
2022-11-28T09:59:58.979Z,47.54
2022-11-28T10:00:59.853Z,47.54
2022-11-28T10:01:58.944Z,47.54
2022-11-28T10:02:58.946Z,47.44
2022-11-28T10:03:59.344Z,47.54
2022-11-28T10:04:58.937Z,47.64
2022-11-28T10:05:58.919Z,47.54
2022-11-28T10:06:58.898Z,47.44
2022-11-28T10:07:58.925Z,47.54
2022-11-28T10:08:58.883Z,47.54
2022-11-28T10:09:59.084Z,47.54
2022-11-28T10:10:58.849Z,47.44
2022-11-28T10:11:58.876Z,47.44
2022-11-28T10:12:58.837Z,47.54
2022-11-28T10:14:14.279Z,47.54
2022-11-28T10:14:58.822Z,47.54
2022-11-28T10:15:58.867Z,47.44
2022-11-28T10:16:58.890Z,47.54
2022-11-28T10:17:58.783Z,47.54
2022-11-28T10:18:58.808Z,47.54
2022-11-28T10:19:59.035Z,47.54
2022-11-28T10:20:58.740Z,47.44
2022-11-28T10:21:59.521Z,47.54
2022-11-28T10:22:58.734Z,47.44
2022-11-28T10:23:58.726Z,47.44
2022-11-28T10:24:58.703Z,47.34
2022-11-28T10:25:58.738Z,47.34
2022-11-28T10:26:58.684Z,47.44
2022-11-28T10:27:58.885Z,47.44
2022-11-28T10:28:58.663Z,47.34
2022-11-28T10:29:58.651Z,47.24
2022-11-28T10:30:58.741Z,47.24
2022-11-28T10:31:58.627Z,47.34
2022-11-28T10:32:58.624Z,47.34
2022-11-28T10:33:58.819Z,47.24
2022-11-28T10:34:58.597Z,47.14
2022-11-28T10:35:58.594Z,47.24
2022-11-28T10:37:00.853Z,47.14
2022-11-28T10:37:58.572Z,47.14
2022-11-28T10:38:58.552Z,47.14
2022-11-28T10:39:58.659Z,47.14
2022-11-28T10:40:58.535Z,47.24
2022-11-28T10:41:58.529Z,47.14
2022-11-28T10:42:58.521Z,47.14
2022-11-28T10:43:58.518Z,47.14
2022-11-28T10:44:58.497Z,47.14
2022-11-28T10:45:58.703Z,47.14
2022-11-28T10:46:58.472Z,47.14
2022-11-28T10:48:04.028Z,47.14
2022-11-28T10:48:58.459Z,47.14
2022-11-28T10:49:58.442Z,47.14
2022-11-28T10:50:58.434Z,47.04
2022-11-28T10:51:58.686Z,47.04
2022-11-28T10:52:58.418Z,47.04
2022-11-28T10:53:58.414Z,47.14
2022-11-28T10:54:58.393Z,47.14
2022-11-28T10:55:58.384Z,47.14
2022-11-28T10:56:58.373Z,47.04
2022-11-28T10:57:58.514Z,47.04
2022-11-28T10:58:58.370Z,47.04
2022-11-28T10:59:58.347Z,47.04
2022-11-28T11:00:58.412Z,47.04
2022-11-28T11:01:58.357Z,47.04
2022-11-28T11:02:58.309Z,47.04
2022-11-28T11:03:58.336Z,47.14
2022-11-28T11:04:58.342Z,47.04
2022-11-28T11:05:58.295Z,46.94
2022-11-28T11:07:08.124Z,46.94
2022-11-28T11:07:58.297Z,46.94
2022-11-28T11:08:58.203Z,46.84
2022-11-28T11:09:58.239Z,46.94
2022-11-28T11:10:58.167Z,46.94
2022-11-28T11:11:58.186Z,46.94
2022-11-28T11:12:58.184Z,46.94
2022-11-28T11:13:58.174Z,47.04
2022-11-28T11:14:58.170Z,47.04
2022-11-28T11:15:58.306Z,46.94
2022-11-28T11:16:58.107Z,46.94
2022-11-28T11:17:58.107Z,46.94
2022-11-28T11:18:58.109Z,46.94
2022-11-28T11:19:58.123Z,46.94
2022-11-28T11:20:58.069Z,46.94
2022-11-28T11:21:58.581Z,46.94
2022-11-28T11:22:58.065Z,46.94
2022-11-28T11:23:58.109Z,46.84
2022-11-28T11:24:58.038Z,46.94
2022-11-28T11:25:58.027Z,46.94
2022-11-28T11:26:58.022Z,46.94
2022-11-28T11:27:58.134Z,46.84
2022-11-28T11:28:58.002Z,46.84
2022-11-28T11:29:57.978Z,46.84
2022-11-28T11:30:57.999Z,46.84
2022-11-28T11:31:57.965Z,46.84
2022-11-28T11:32:57.941Z,46.84
2022-11-28T11:33:58.094Z,46.84
2022-11-28T11:34:57.985Z,46.84
2022-11-28T11:35:58.007Z,46.84
2022-11-28T11:36:57.958Z,46.84
2022-11-28T11:37:57.949Z,46.73
2022-11-28T11:38:57.966Z,46.73
2022-11-28T11:39:58.074Z,46.64
2022-11-28T11:40:57.975Z,46.73
2022-11-28T11:41:57.944Z,46.84
2022-11-28T11:42:57.898Z,46.73
2022-11-28T11:43:57.901Z,46.73
2022-11-28T11:44:57.889Z,46.73
2022-11-28T11:45:58.066Z,46.73
2022-11-28T11:46:57.853Z,46.73
2022-11-28T11:47:57.854Z,46.73
2022-11-28T11:48:57.796Z,46.64
2022-11-28T11:49:57.776Z,46.64
2022-11-28T11:50:57.765Z,46.64
2022-11-28T11:51:57.791Z,46.64
2022-11-28T11:52:57.741Z,46.64
2022-11-28T11:53:57.734Z,46.64
2022-11-28T11:54:57.723Z,46.73
2022-11-28T11:55:57.708Z,46.64
2022-11-28T11:57:24.868Z,46.64
2022-11-28T11:58:00.542Z,46.73
2022-11-28T11:58:57.978Z,46.73
2022-11-28T11:59:57.684Z,46.64
2022-11-28T12:00:57.657Z,46.73
2022-11-28T12:01:57.649Z,46.84
2022-11-28T12:02:57.827Z,46.84
2022-11-28T12:03:57.867Z,46.73
2022-11-28T12:04:57.705Z,46.73
2022-11-28T12:06:14.715Z,46.64
2022-11-28T12:06:57.603Z,46.64
2022-11-28T12:07:57.613Z,46.64
2022-11-28T12:08:57.583Z,46.64
2022-11-28T12:10:01.747Z,46.73
2022-11-28T12:10:57.558Z,46.53
2022-11-28T12:11:57.606Z,46.64
2022-11-28T12:12:57.585Z,46.53
2022-11-28T12:13:57.590Z,46.53
2022-11-28T12:14:57.569Z,46.53
2022-11-28T12:15:57.659Z,46.64
2022-11-28T12:16:57.500Z,46.64
2022-11-28T12:17:59.206Z,46.64
2022-11-28T12:18:57.471Z,46.64
2022-11-28T12:19:57.463Z,46.64
2022-11-28T12:20:57.452Z,46.64
2022-11-28T12:21:57.588Z,46.73
2022-11-28T12:22:57.428Z,46.73
2022-11-28T12:23:57.428Z,46.73
2022-11-28T12:24:57.418Z,46.73
2022-11-28T12:25:57.401Z,46.64
2022-11-28T12:26:57.389Z,46.64
2022-11-28T12:27:57.515Z,46.64
2022-11-28T12:28:57.363Z,46.73
2022-11-28T12:29:57.423Z,46.64
2022-11-28T12:30:57.444Z,46.64
2022-11-28T12:31:57.394Z,46.64
2022-11-28T12:32:57.397Z,46.64
2022-11-28T12:33:57.499Z,46.53
2022-11-28T12:34:57.390Z,46.53
2022-11-28T12:36:00.324Z,46.53
2022-11-28T12:36:57.359Z,46.53
2022-11-28T12:38:12.778Z,46.53
2022-11-28T12:38:57.331Z,46.53
2022-11-28T12:39:57.561Z,46.53
2022-11-28T12:40:57.314Z,46.53
2022-11-28T12:41:57.294Z,46.33
2022-11-28T12:42:57.283Z,46.43
2022-11-28T12:43:57.268Z,46.33
2022-11-28T12:44:57.263Z,46.43
2022-11-28T12:45:57.491Z,46.43
2022-11-28T12:46:57.229Z,46.33
2022-11-28T12:47:57.173Z,46.33
2022-11-28T12:48:57.174Z,46.33
2022-11-28T12:49:57.223Z,46.43
2022-11-28T12:50:57.211Z,46.33
2022-11-28T12:51:57.226Z,46.43
2022-11-28T12:52:57.182Z,46.43
2022-11-28T12:53:57.167Z,46.43
2022-11-28T12:54:57.214Z,46.43
2022-11-28T12:55:57.145Z,46.33
2022-11-28T12:56:57.207Z,46.33
2022-11-28T12:57:57.724Z,46.33
2022-11-28T12:58:57.124Z,46.23
2022-11-28T12:59:57.125Z,46.33
2022-11-28T13:00:57.096Z,46.23
2022-11-28T13:01:57.110Z,46.23
2022-11-28T13:02:57.199Z,46.33
2022-11-28T13:03:57.136Z,46.33
2022-11-28T13:04:57.079Z,46.23
2022-11-28T13:05:57.043Z,46.23
2022-11-28T13:06:57.052Z,46.23
2022-11-28T13:07:57.097Z,46.23
2022-11-28T13:08:57.026Z,46.23